Latest Weather Observations for Camden

IDN60901

Issued at 10:41 am EDT Friday 12 February 2016 (issued every 10 minutes, with the page automatically refreshed every 10 minutes)

About weather observations | Map of Sydney area stations | Latest observations for Sydney area | Other Formats
Station Details ID: 068192 Name: CAMDEN AIRPORT AWS Lat: -34.04 Lon: 150.69 Height: 73.9 m
Data from the previous 72 hours. | See also: Recent months at Camden
Date/Time
EDT
Tmp

°C
App
Tmp
°C
Dew
Point
°C
Rel
Hum
%
Delta-T

°C
Wind Press
QNH
hPa
Press
MSL
hPa
Rain
since
9 am
mm
Dir
 
Spd
km/h
Gust
km/h
Spd
kts
Gust
kts
12/10:30am 26.4 26.6 17.7 58 5.5 NNE 13 35 7 19 1017.2 1016.9 0.0
12/10:00am 25.3 27.2 18.5 66 4.3 ENE 6 9 3 5 1017.2 1016.9 0.0
12/09:30am 24.5 27.5 18.4 69 3.9 CALM 0 0 0 0 1017.3 1017.0 0.0
12/09:00am 23.5 26.7 18.8 75 3.0 CALM 0 0 0 0 1017.4 1017.1 0.0
12/08:30am 22.2 25.4 18.8 81 2.1 CALM 0 0 0 0 1017.3 1017.0 0.0
12/08:00am 20.7 24.0 19.0 90 1.1 CALM 0 6 0 3 1017.0 1016.7 0.0
12/07:30am 19.5 22.9 19.3 99 0.1 CALM 0 0 0 0 1016.7 1016.3 0.0
12/07:16am 18.7 21.7 18.5 99 0.1 CALM 0 0 0 0 1016.4 1016.0 0.0
12/07:00am 18.2 21.0 18.0 99 0.1 CALM 0 0 0 0 1016.3 1015.9 0.0
12/06:30am 18.3 21.2 18.1 99 0.1 CALM 0 0 0 0 1016.1 1015.7 0.0
12/06:26am 18.2 21.0 18.0 99 0.1 CALM 0 0 0 0 1016.0 1015.6 0.0
12/06:11am 18.3 21.1 18.0 98 0.2 CALM 0 0 0 0 1016.0 1015.6 0.0
12/06:00am 18.4 21.3 18.1 98 0.2 CALM 0 0 0 0 1015.8 1015.4 0.0
12/05:50am 18.6 21.6 18.4 99 0.1 CALM 0 0 0 0 1015.7 1015.3 0.0
12/05:45am 18.7 21.7 18.5 99 0.1 CALM 0 0 0 0 1015.7 1015.3 0.0
12/05:30am 18.8 21.9 18.6 99 0.1 CALM 0 0 0 0 1015.6 1015.2 0.0
12/05:00am 18.6 21.6 18.4 99 0.1 CALM 0 0 0 0 1015.2 1014.9 0.0
12/04:51am 18.5 21.4 18.2 98 0.2 CALM 0 0 0 0 1015.1 1014.8 0.0
12/04:30am 18.6 21.4 17.9 96 0.4 CALM 0 0 0 0 1015.0 1014.7 0.0
12/04:29am 18.6 21.4 17.9 96 0.4 CALM 0 0 0 0 1015.0 1014.7 0.0
12/04:00am 19.1 21.3 18.4 96 0.4 ESE 4 7 2 4 1014.9 1014.6 0.0
12/03:30am 19.6 22.0 18.9 96 0.4 SSE 4 6 2 3 1015.3 1015.0 0.0
12/03:00am 19.7 23.0 19.2 97 0.3 CALM 0 0 0 0 1015.6 1015.2 0.0
12/02:30am 19.8 23.1 19.0 95 0.5 CALM 0 0 0 0 1015.6 1015.2 0.0
12/02:00am 19.7 22.4 18.7 94 0.6 NNW 2 7 1 4 1015.8 1015.4 0.0
12/01:30am 19.8 22.8 18.5 92 0.8 CALM 0 0 0 0 1015.9 1015.5 0.0
12/01:00am 20.3 22.3 18.8 91 0.9 SSW 6 9 3 5 1016.3 1015.9 0.0
12/12:30am 20.6 23.4 18.9 90 1.1 SSW 2 9 1 5 1016.2 1015.8 0.0
12/12:00am 20.7 23.2 19.0 90 1.1 W 4 7 2 4 1016.4 1016.0 0.0
 
Date/Time
EDT
Tmp

°C
App
Tmp
°C
Dew
Point
°C
Rel
Hum
%
Delta-T

°C
Wind Press
QNH
hPa
Press
MSL
hPa
Rain
since
9 am
mm
Dir
 
Spd
km/h
Gust
km/h
Spd
kts
Gust
kts
11/11:30pm 21.3 24.6 19.0 87 1.5 CALM 0 0 0 0 1016.4 1016.0 0.0
11/11:00pm 21.5 23.8 18.5 83 1.9 S 4 7 2 4 1016.7 1016.3 0.0
11/10:30pm 21.7 24.9 18.9 84 1.8 CALM 0 0 0 0 1016.9 1016.6 0.0
11/10:00pm 21.8 24.9 18.6 82 2.0 CALM 0 6 0 3 1016.7 1016.3 0.0
11/09:30pm 22.2 24.8 18.4 79 2.4 SE 2 6 1 3 1016.4 1016.0 0.0
11/09:00pm 22.5 24.2 18.5 78 2.5 SE 7 9 4 5 1015.9 1015.5 0.0
11/08:30pm 22.8 25.1 18.6 77 2.7 SSE 4 7 2 4 1015.7 1015.3 0.0
11/08:00pm 23.0 25.9 18.3 75 3.0 CALM 0 0 0 0 1015.2 1014.9 0.0
11/07:30pm 23.3 24.8 18.0 72 3.3 E 7 11 4 6 1014.9 1014.6 0.0
11/07:00pm 23.7 24.3 17.7 69 3.7 ESE 11 20 6 11 1014.7 1014.4 0.0
11/06:30pm 24.0 23.8 17.7 68 3.9 E 15 24 8 13 1014.0 1013.7 0.0
11/06:00pm 24.5 24.0 17.7 66 4.3 E 17 28 9 15 1013.4 1013.1 0.0
11/05:30pm 25.0 24.0 16.7 60 5.1 E 17 24 9 13 1013.5 1013.2 0.0
11/05:00pm 25.7 25.0 16.5 56 5.7 E 15 22 8 12 1013.5 1013.2 0.0
11/04:30pm 26.8 26.1 16.4 53 6.4 ENE 15 24 8 13 1013.5 1013.2 0.0
11/04:00pm 27.6 26.4 16.2 49 7.1 ENE 17 26 9 14 1013.1 1012.8 0.0
11/03:30pm 29.1 27.5 14.9 42 8.7 ENE 17 24 9 13 1013.3 1013.0 0.0
11/03:00pm 28.7 28.1 16.6 48 7.6 ENE 15 19 8 10 1013.5 1013.2 0.0
11/02:30pm 28.6 27.9 15.5 45 8.1 ENE 13 20 7 11 1013.9 1013.6 0.0
11/02:00pm 28.8 28.5 16.4 47 7.7 ENE 13 22 7 12 1014.2 1013.9 0.0
11/01:30pm 28.1 28.7 16.7 50 7.1 ENE 9 19 5 10 1014.5 1014.2 0.0
11/01:00pm 27.7 27.5 16.6 50 6.9 NE 13 20 7 11 1014.7 1014.4 0.0
11/12:30pm 27.3 27.7 17.2 54 6.3 NNE 11 20 6 11 1015.0 1014.7 0.0
11/12:00pm 27.0 27.3 16.9 54 6.3 NNE 11 19 6 10 1015.5 1015.1 0.0
11/11:30am 26.0 26.9 17.6 60 5.3 NNE 9 15 5 8 1015.8 1015.4 0.0
11/11:00am 25.5 26.0 16.6 58 5.5 NE 9 17 5 9 1015.9 1015.5 0.0
11/10:30am 25.5 26.3 17.4 61 5.1 ESE 9 15 5 8 1015.9 1015.5 0.0
11/10:00am 24.1 26.0 17.6 67 4.1 SSE 4 9 2 5 1016.0 1015.6 0.0
11/09:30am 22.8 24.0 16.8 69 3.7 ESE 6 9 3 5 1016.1 1015.7 0.0
11/09:00am 22.1 24.8 17.7 76 2.7 CALM 0 0 0 0 1016.1 1015.7 0.0
11/08:30am 20.1 22.5 16.9 82 1.9 CALM 0 0 0 0 1016.1 1015.7 0.0
11/08:00am 18.6 20.8 16.6 88 1.2 CALM 0 0 0 0 1015.8 1015.4 0.0
11/07:30am 17.5 20.0 17.2 98 0.2 CALM 0 0 0 0 1015.3 1015.0 0.0
11/07:14am 16.8 19.0 16.6 99 0.1 CALM 0 0 0 0 1015.0 1014.7 0.0
11/07:00am 16.5 18.6 16.3 99 0.1 CALM 0 0 0 0 1014.7 1014.4 0.0
11/06:30am 16.3 18.3 16.1 99 0.1 CALM 0 0 0 0 1014.4 1014.1 0.0
11/06:28am 16.2 18.2 16.0 99 0.1 CALM 0 0 0 0 1014.4 1014.1 0.0
11/06:00am 16.0 17.8 15.5 97 0.3 CALM 0 0 0 0 1014.2 1013.9 0.0
11/05:30am 16.3 18.3 16.0 98 0.2 CALM 0 0 0 0 1013.8 1013.5 0.0
11/05:00am 16.4 18.4 15.9 97 0.3 CALM 0 0 0 0 1013.7 1013.4 0.0
11/04:30am 16.6 18.5 15.8 95 0.5 CALM 0 0 0 0 1013.4 1013.1 0.0
11/04:08am 17.1 19.2 16.3 95 0.5 CALM 0 0 0 0 1013.4 1013.1 0.0
11/04:00am 17.2 19.4 16.6 96 0.4 CALM 0 0 0 0 1013.4 1013.1 0.0
11/03:37am 17.4 19.7 16.8 96 0.4 CALM 0 0 0 0 1013.4 1013.1 0.0
11/03:30am 17.3 19.6 16.8 97 0.3 CALM 0 0 0 0 1013.3 1013.0 0.0
11/03:24am 17.3 19.6 16.7 96 0.4 CALM 0 0 0 0 1013.4 1013.1 0.0
11/03:04am 17.4 19.6 16.4 94 0.6 CALM 0 0 0 0 1013.5 1013.2 0.0
11/03:00am 17.5 19.7 16.5 94 0.6 CALM 0 0 0 0 1013.6 1013.3 0.0
11/02:30am 17.7 19.8 16.2 91 0.9 CALM 0 0 0 0 1013.8 1013.5 0.0
11/02:00am 18.0 19.5 16.7 92 0.8 SSW 4 7 2 4 1014.0 1013.7 0.0
11/01:30am 18.4 19.7 17.2 93 0.7 S 6 7 3 4 1014.0 1013.7 0.0
11/01:00am 18.4 20.6 16.6 89 1.1 CALM 0 0 0 0 1014.2 1013.9 0.0
11/12:30am 19.4 21.9 17.2 87 1.3 CALM 0 0 0 0 1014.2 1013.9 0.0
11/12:00am 20.0 22.4 17.0 83 1.8 CALM 0 0 0 0 1014.4 1014.1 0.0
 
Date/Time
EDT
Tmp

°C
App
Tmp
°C
Dew
Point
°C
Rel
Hum
%
Delta-T

°C
Wind Press
QNH
hPa
Press
MSL
hPa
Rain
since
9 am
mm
Dir
 
Spd
km/h
Gust
km/h
Spd
kts
Gust
kts
10/11:30pm 20.2 22.6 17.0 82 2.0 CALM 0 0 0 0 1014.2 1013.9 0.0
10/11:00pm 20.8 23.3 17.2 80 2.2 CALM 0 0 0 0 1014.3 1014.0 0.0
10/10:30pm 21.5 24.0 17.3 77 2.6 CALM 0 6 0 3 1014.4 1014.1 0.0
10/10:00pm 21.8 23.0 17.4 76 2.7 E 7 9 4 5 1014.2 1013.9 0.0
10/09:30pm 22.4 23.3 17.5 74 3.0 ENE 9 15 5 8 1013.9 1013.6 0.0
10/09:00pm 22.8 24.8 17.0 70 3.6 ENE 2 9 1 5 1013.7 1013.4 0.0
10/08:30pm 23.7 24.8 17.0 66 4.1 E 7 17 4 9 1013.3 1013.0 0.0
10/08:00pm 24.4 23.9 16.9 63 4.6 ENE 15 22 8 12 1012.8 1012.5 0.0
10/07:30pm 25.4 24.6 17.1 60 5.2 ENE 17 24 9 13 1012.2 1011.9 0.0
10/07:00pm 26.8 26.1 17.3 56 6.0 ENE 17 22 9 12 1011.8 1011.5 0.0
10/06:30pm 27.8 27.2 17.6 53 6.5 ENE 17 26 9 14 1011.5 1011.2 0.0
10/06:00pm 28.9 27.7 17.1 49 7.4 ENE 19 26 10 14 1011.2 1010.9 0.0
10/05:30pm 29.8 28.4 16.6 45 8.3 ENE 19 24 10 13 1011.1 1010.8 0.0
10/05:00pm 30.5 29.3 15.0 39 9.5 NNE 15 24 8 13 1011.1 1010.8 0.0
10/04:30pm 30.1 29.3 15.0 40 9.3 NE 13 22 7 12 1011.2 1010.9 0.0
10/04:00pm 29.7 28.1 13.9 38 9.5 NNE 15 22 8 12 1011.5 1011.2 0.0
10/03:30pm 29.6 29.5 16.1 44 8.4 N 11 15 6 8 1011.9 1011.6 0.0
10/03:00pm 29.1 29.4 16.0 45 8.1 NNE 9 19 5 10 1012.4 1012.1 0.0
10/02:30pm 29.2 28.7 16.0 44 8.2 NE 13 20 7 11 1012.9 1012.6 0.0
10/02:00pm 28.7 27.8 15.9 45 7.9 NNE 15 22 8 12 1013.4 1013.1 0.0
10/01:30pm 28.2 27.4 16.1 47 7.5 NE 15 24 8 13 1013.7 1013.4 0.0
10/01:00pm 27.7 27.0 16.3 49 7.1 NNE 15 22 8 12 1014.1 1013.8 0.0
10/12:30pm 27.0 26.3 16.3 52 6.6 N 15 22 8 12 1014.5 1014.2 0.0
10/12:00pm 26.3 25.6 15.4 51 6.6 NE 13 19 7 10 1015.2 1014.9 0.0
10/11:30am 26.1 25.6 16.9 57 5.7 NNE 15 20 8 11 1015.8 1015.4 0.0
10/11:00am 24.9 24.0 15.8 57 5.5 NNE 15 20 8 11 1016.3 1015.9 0.0
10/10:30am 24.5 23.3 15.1 55 5.7 N 15 22 8 12 1016.6 1016.2 0.0
10/10:00am 23.9 24.1 16.7 64 4.4 NNW 11 15 6 8 1016.7 1016.3 0.0
10/09:30am 21.9 24.2 16.8 73 3.1 CALM 0 0 0 0 1016.8 1016.4 0.0
10/09:00am 20.7 22.9 16.5 77 2.5 CALM 0 0 0 0 1016.9 1016.6 0.0
10/08:30am 18.5 20.8 16.8 90 1.0 CALM 0 0 0 0 1017.0 1016.7 -
10/08:00am 17.4 19.7 16.8 96 0.4 CALM 0 0 0 0 1017.0 1016.7 -
10/07:58am 17.4 19.8 16.9 97 0.3 CALM 0 0 0 0 1017.0 1016.7 -
10/07:57am 17.6 20.1 17.3 98 0.2 CALM 0 0 0 0 1017.0 1016.7 -
10/07:34am 16.2 18.2 16.0 99 0.1 CALM 0 0 0 0 1016.9 1016.6 -
10/07:30am 16.5 18.6 16.3 99 0.1 CALM 0 0 0 0 1016.9 1016.6 -
10/07:00am 15.3 17.0 15.1 99 0.1 CALM 0 0 0 0 1016.7 1016.3 -
10/06:30am 15.1 16.7 14.9 99 0.1 CALM 0 0 0 0 1016.6 1016.2 -
10/06:00am 15.2 16.8 14.9 98 0.2 CALM 0 0 0 0 1016.3 1015.9 -
10/05:30am 15.5 17.2 15.3 99 0.1 CALM 0 0 0 0 1016.1 1015.7 -
10/05:00am 15.3 16.9 14.8 97 0.3 CALM 0 0 0 0 1016.2 1015.8 -
10/04:30am 16.1 18.1 15.9 99 0.1 CALM 0 0 0 0 1016.3 1015.9 -
10/04:00am 16.1 17.9 15.5 96 0.3 CALM 0 0 0 0 1016.5 1016.1 -
10/03:32am 16.4 18.3 15.8 96 0.4 CALM 0 0 0 0 1016.6 1016.2 -
10/03:30am 16.5 18.5 15.9 96 0.4 CALM 0 0 0 0 1016.7 1016.3 -
10/03:00am 16.7 18.7 16.1 96 0.4 CALM 0 0 0 0 1016.9 1016.6 0.0
10/02:30am 17.0 19.1 16.2 95 0.5 CALM 0 0 0 0 1017.3 1017.0 -
10/02:00am 17.4 19.2 15.6 89 1.1 CALM 0 0 0 0 1017.6 1017.3 -
10/01:30am 17.8 19.8 16.1 90 1.0 CALM 0 0 0 0 1017.8 1017.5 -
10/01:00am 18.1 20.2 16.3 89 1.1 CALM 0 0 0 0 1018.3 1018.0 -
10/12:30am 17.9 19.9 16.1 89 1.1 CALM 0 0 0 0 1018.7 1018.4 -
10/12:00am 17.8 19.8 16.1 90 1.0 CALM 0 0 0 0 1018.9 1018.6 -
 
Date/Time
EDT
Tmp

°C
App
Tmp
°C
Dew
Point
°C
Rel
Hum
%
Delta-T

°C
Wind Press
QNH
hPa
Press
MSL
hPa
Rain
since
9 am
mm
Dir
 
Spd
km/h
Gust
km/h
Spd
kts
Gust
kts
09/11:30pm 17.9 18.6 15.5 86 1.4 S 6 7 3 4 1019.1 1018.8 -
09/11:00pm 18.4 20.5 16.2 87 1.3 CALM 0 0 0 0 1019.5 1019.2 -
09/10:30pm 18.7 20.5 15.4 81 1.9 CALM 0 0 0 0 1019.7 1019.4 -
09/10:00pm 19.2 21.1 15.7 80 2.1 CALM 0 0 0 0 1019.8 1019.5 -
09/09:30pm 20.2 22.0 15.4 74 2.8 CALM 0 0 0 0 1019.7 1019.4 -
09/09:00pm 20.7 22.4 15.3 71 3.2 CALM 0 0 0 0 1019.6 1019.3 -
09/08:30pm 21.1 22.3 15.0 68 3.6 ESE 2 7 1 4 1019.4 1019.1 -
09/08:00pm 21.8 22.2 15.2 66 3.9 ESE 7 13 4 7 1019.2 1018.9 -
09/07:30pm 22.7 22.8 14.5 60 4.8 ESE 7 11 4 6 1018.9 1018.6 -
09/07:00pm 23.9 23.2 14.3 55 5.7 ESE 11 19 6 10 1018.6 1018.3 -
09/06:30pm 25.1 24.7 15.1 53 6.0 ESE 11 17 6 9 1018.2 1017.9 -
09/06:00pm 25.6 25.1 15.0 52 6.4 E 11 15 6 8 1018.1 1017.8 -
09/05:30pm 26.4 25.9 15.8 52 6.5 E 13 20 7 11 1018.2 1017.9 -
09/05:00pm 26.0 25.5 14.8 50 6.7 ENE 11 17 6 9 1018.2 1017.9 -
09/04:30pm 26.4 25.2 15.1 49 6.8 ESE 15 20 8 11 1018.4 1018.1 -
09/04:00pm 27.1 26.5 16.7 53 6.5 E 15 20 8 11 1018.5 1018.2 -
09/03:00pm 27.1 26.5 16.7 53 6.5 E 15 26 8 14 1019.2 1018.9 0.0
09/02:30pm 27.7 27.7 17.3 53 6.5 E 13 19 7 10 1019.4 1019.1 0.0
09/02:00pm 27.3 26.7 15.7 49 7.1 E 13 20 7 11 1019.8 1019.5 0.0
09/01:30pm 27.4 27.3 16.1 50 7.0 ESE 11 20 6 11 1020.0 1019.7 0.0
09/01:00pm 27.5 28.1 16.8 52 6.7 SE 9 20 5 11 1020.2 1019.9 0.0
09/12:30pm 26.5 26.6 16.4 53 6.2 SE 11 17 6 9 1020.5 1020.2 0.0
09/12:00pm 26.2 25.7 15.9 53 6.3 ESE 13 20 7 11 1020.8 1020.5 0.0
09/11:30am 26.2 26.1 17.0 57 5.7 SE 13 20 7 11 1021.1 1020.8 0.0
09/11:00am 25.8 24.8 16.6 56 5.7 SSE 17 26 9 14 1021.3 1021.0 0.0

Latest Capital City Observations: Canberra | Sydney | Melbourne | Brisbane | Adelaide | Perth | Hobart | Darwin

Other Formats:

Comma delimited format used in spreadsheet applications
http://www.bom.gov.au/fwo/IDN60901/IDN60901.94755.axf

JavaScript Object Notation format (JSON) in row-major order
http://www.bom.gov.au/fwo/IDN60901/IDN60901.94755.json